sensor_id;sensor_type;location;lat;lon;timestamp;temperature;humidity
22923;DHT22;11627;51.322;22.816;2023-04-25T00:02:11;11.20;1.00
22923;DHT22;11627;51.322;22.816;2023-04-25T00:04:39;11.20;1.00
22923;DHT22;11627;51.322;22.816;2023-04-25T00:07:05;11.20;1.00
22923;DHT22;11627;51.322;22.816;2023-04-25T00:09:32;11.10;1.00
22923;DHT22;11627;51.322;22.816;2023-04-25T00:11:57;11.00;1.00
22923;DHT22;11627;51.322;22.816;2023-04-25T00:14:26;11.00;1.00
22923;DHT22;11627;51.322;22.816;2023-04-25T00:16:53;11.00;1.00
22923;DHT22;11627;51.322;22.816;2023-04-25T00:19:22;11.00;1.00
22923;DHT22;11627;51.322;22.816;2023-04-25T00:21:47;11.00;1.00
22923;DHT22;11627;51.322;22.816;2023-04-25T00:24:14;10.90;1.00
22923;DHT22;11627;51.322;22.816;2023-04-25T00:26:42;10.90;1.00
22923;DHT22;11627;51.322;22.816;2023-04-25T00:29:07;10.90;1.00
22923;DHT22;11627;51.322;22.816;2023-04-25T00:31:33;10.80;1.00
22923;DHT22;11627;51.322;22.816;2023-04-25T00:34:00;10.90;1.00
22923;DHT22;11627;51.322;22.816;2023-04-25T00:36:27;10.90;1.00
22923;DHT22;11627;51.322;22.816;2023-04-25T00:38:54;10.80;1.00
22923;DHT22;11627;51.322;22.816;2023-04-25T00:41:22;10.80;1.00
22923;DHT22;11627;51.322;22.816;2023-04-25T00:43:49;10.80;1.00
22923;DHT22;11627;51.322;22.816;2023-04-25T00:46:17;10.80;1.00
22923;DHT22;11627;51.322;22.816;2023-04-25T00:48:44;10.80;1.00
22923;DHT22;11627;51.322;22.816;2023-04-25T00:51:17;10.70;1.00
22923;DHT22;11627;51.322;22.816;2023-04-25T00:53:45;10.70;1.00
22923;DHT22;11627;51.322;22.816;2023-04-25T00:56:13;10.70;1.00
22923;DHT22;11627;51.322;22.816;2023-04-25T00:58:41;10.70;1.00
22923;DHT22;11627;51.322;22.816;2023-04-25T01:01:09;10.70;1.00
22923;DHT22;11627;51.322;22.816;2023-04-25T01:03:38;10.70;1.00
22923;DHT22;11627;51.322;22.816;2023-04-25T01:06:12;10.60;1.00
22923;DHT22;11627;51.322;22.816;2023-04-25T01:08:39;10.50;1.00
22923;DHT22;11627;51.322;22.816;2023-04-25T01:11:06;10.50;1.00
22923;DHT22;11627;51.322;22.816;2023-04-25T01:13:32;10.40;5.20
22923;DHT22;11627;51.322;22.816;2023-04-25T01:16:00;10.40;3.80
22923;DHT22;11627;51.322;22.816;2023-04-25T01:18:26;10.40;6.50
22923;DHT22;11627;51.322;22.816;2023-04-25T01:20:53;10.40;8.30
22923;DHT22;11627;51.322;22.816;2023-04-25T01:23:20;10.40;6.60
22923;DHT22;11627;51.322;22.816;2023-04-25T01:25:48;10.20;12.80
22923;DHT22;11627;51.322;22.816;2023-04-25T01:28:14;10.10;20.50
22923;DHT22;11627;51.322;22.816;2023-04-25T01:30:41;10.10;23.30
22923;DHT22;11627;51.322;22.816;2023-04-25T01:33:08;10.00;27.50
22923;DHT22;11627;51.322;22.816;2023-04-25T01:35:34;10.00;31.60
22923;DHT22;11627;51.322;22.816;2023-04-25T01:38:01;9.90;37.50
22923;DHT22;11627;51.322;22.816;2023-04-25T01:40:27;10.10;40.30
22923;DHT22;11627;51.322;22.816;2023-04-25T01:42:53;10.20;39.90
22923;DHT22;11627;51.322;22.816;2023-04-25T01:45:19;10.30;39.40
22923;DHT22;11627;51.322;22.816;2023-04-25T01:47:46;10.40;33.90
22923;DHT22;11627;51.322;22.816;2023-04-25T01:50:17;10.50;27.50
22923;DHT22;11627;51.322;22.816;2023-04-25T01:52:43;10.50;20.70
22923;DHT22;11627;51.322;22.816;2023-04-25T01:55:12;10.50;19.20
22923;DHT22;11627;51.322;22.816;2023-04-25T01:57:39;10.50;12.60
22923;DHT22;11627;51.322;22.816;2023-04-25T02:00:08;10.50;1.00
22923;DHT22;11627;51.322;22.816;2023-04-25T02:02:35;10.40;1.00
22923;DHT22;11627;51.322;22.816;2023-04-25T02:05:02;10.30;1.00
22923;DHT22;11627;51.322;22.816;2023-04-25T02:07:28;10.20;1.00
22923;DHT22;11627;51.322;22.816;2023-04-25T02:09:53;10.10;1.00
22923;DHT22;11627;51.322;22.816;2023-04-25T02:12:20;9.90;1.00
22923;DHT22;11627;51.322;22.816;2023-04-25T02:14:46;9.90;1.00
22923;DHT22;11627;51.322;22.816;2023-04-25T02:17:12;9.90;1.00
22923;DHT22;11627;51.322;22.816;2023-04-25T02:19:39;9.80;1.00
22923;DHT22;11627;51.322;22.816;2023-04-25T02:22:06;9.80;1.00
22923;DHT22;11627;51.322;22.816;2023-04-25T02:24:32;9.70;1.00
22923;DHT22;11627;51.322;22.816;2023-04-25T02:26:59;9.70;1.90
22923;DHT22;11627;51.322;22.816;2023-04-25T02:29:26;9.70;4.60
22923;DHT22;11627;51.322;22.816;2023-04-25T02:31:53;9.60;4.50
22923;DHT22;11627;51.322;22.816;2023-04-25T02:34:18;9.50;10.60
22923;DHT22;11627;51.322;22.816;2023-04-25T02:36:45;9.50;13.80
22923;DHT22;11627;51.322;22.816;2023-04-25T02:39:10;9.40;20.30
22923;DHT22;11627;51.322;22.816;2023-04-25T02:41:38;9.40;22.70
22923;DHT22;11627;51.322;22.816;2023-04-25T02:44:04;9.40;24.10
22923;DHT22;11627;51.322;22.816;2023-04-25T02:46:31;9.40;25.60
22923;DHT22;11627;51.322;22.816;2023-04-25T02:48:58;9.30;29.50
22923;DHT22;11627;51.322;22.816;2023-04-25T02:51:23;9.30;29.10
22923;DHT22;11627;51.322;22.816;2023-04-25T02:53:49;9.30;26.10
22923;DHT22;11627;51.322;22.816;2023-04-25T02:56:16;9.30;28.10
22923;DHT22;11627;51.322;22.816;2023-04-25T02:58:42;9.30;27.90
22923;DHT22;11627;51.322;22.816;2023-04-25T03:01:08;9.30;27.20
22923;DHT22;11627;51.322;22.816;2023-04-25T03:03:33;9.30;26.70
22923;DHT22;11627;51.322;22.816;2023-04-25T03:06:01;9.30;39.00
22923;DHT22;11627;51.322;22.816;2023-04-25T03:08:26;9.30;55.40
22923;DHT22;11627;51.322;22.816;2023-04-25T03:10:58;9.40;55.90
22923;DHT22;11627;51.322;22.816;2023-04-25T03:13:24;9.40;49.50
22923;DHT22;11627;51.322;22.816;2023-04-25T03:15:49;9.40;47.30
22923;DHT22;11627;51.322;22.816;2023-04-25T03:18:15;9.40;46.60
22923;DHT22;11627;51.322;22.816;2023-04-25T03:20:41;9.40;46.70
22923;DHT22;11627;51.322;22.816;2023-04-25T03:23:07;9.40;44.80
22923;DHT22;11627;51.322;22.816;2023-04-25T03:25:34;9.40;45.40
22923;DHT22;11627;51.322;22.816;2023-04-25T03:28:00;9.50;42.40
22923;DHT22;11627;51.322;22.816;2023-04-25T03:30:27;9.50;38.70
22923;DHT22;11627;51.322;22.816;2023-04-25T03:32:54;9.50;36.50
22923;DHT22;11627;51.322;22.816;2023-04-25T03:35:20;9.50;36.10
22923;DHT22;11627;51.322;22.816;2023-04-25T03:37:47;9.50;32.50
22923;DHT22;11627;51.322;22.816;2023-04-25T03:40:15;9.50;30.00
22923;DHT22;11627;51.322;22.816;2023-04-25T03:42:41;9.50;32.40
22923;DHT22;11627;51.322;22.816;2023-04-25T03:45:09;9.60;36.90
22923;DHT22;11627;51.322;22.816;2023-04-25T03:47:36;9.60;43.50
22923;DHT22;11627;51.322;22.816;2023-04-25T03:50:04;9.50;51.10
22923;DHT22;11627;51.322;22.816;2023-04-25T03:52:30;9.50;59.00
22923;DHT22;11627;51.322;22.816;2023-04-25T03:54:58;9.60;66.80
22923;DHT22;11627;51.322;22.816;2023-04-25T03:57:24;9.70;67.70
22923;DHT22;11627;51.322;22.816;2023-04-25T03:59:50;9.80;71.70
22923;DHT22;11627;51.322;22.816;2023-04-25T04:02:15;9.90;75.80
22923;DHT22;11627;51.322;22.816;2023-04-25T04:04:42;10.00;78.70
22923;DHT22;11627;51.322;22.816;2023-04-25T04:07:09;10.10;79.20
22923;DHT22;11627;51.322;22.816;2023-04-25T04:09:39;10.20;81.40
22923;DHT22;11627;51.322;22.816;2023-04-25T04:12:12;10.30;80.80
22923;DHT22;11627;51.322;22.816;2023-04-25T04:14:37;10.40;78.90
22923;DHT22;11627;51.322;22.816;2023-04-25T04:17:04;10.40;78.90
22923;DHT22;11627;51.322;22.816;2023-04-25T04:19:31;10.50;78.90
22923;DHT22;11627;51.322;22.816;2023-04-25T04:21:58;10.60;78.40
22923;DHT22;11627;51.322;22.816;2023-04-25T04:24:23;10.70;76.90
22923;DHT22;11627;51.322;22.816;2023-04-25T04:26:52;10.80;75.30
22923;DHT22;11627;51.322;22.816;2023-04-25T04:29:18;10.90;78.30
22923;DHT22;11627;51.322;22.816;2023-04-25T04:31:52;11.00;76.70
22923;DHT22;11627;51.322;22.816;2023-04-25T04:34:18;11.10;69.60
22923;DHT22;11627;51.322;22.816;2023-04-25T04:36:46;11.20;60.70
22923;DHT22;11627;51.322;22.816;2023-04-25T04:39:12;11.20;61.30
22923;DHT22;11627;51.322;22.816;2023-04-25T04:41:38;11.30;60.90
22923;DHT22;11627;51.322;22.816;2023-04-25T04:44:05;11.30;66.60
22923;DHT22;11627;51.322;22.816;2023-04-25T04:46:34;11.40;71.30
22923;DHT22;11627;51.322;22.816;2023-04-25T04:49:08;11.40;65.30
22923;DHT22;11627;51.322;22.816;2023-04-25T04:51:35;11.50;52.40
22923;DHT22;11627;51.322;22.816;2023-04-25T04:54:03;11.70;49.70
22923;DHT22;11627;51.322;22.816;2023-04-25T04:56:30;11.80;48.50
22923;DHT22;11627;51.322;22.816;2023-04-25T04:58:59;11.90;47.50
22923;DHT22;11627;51.322;22.816;2023-04-25T05:01:29;12.00;45.20
22923;DHT22;11627;51.322;22.816;2023-04-25T05:03:58;12.10;43.10
22923;DHT22;11627;51.322;22.816;2023-04-25T05:06:28;12.20;38.90
22923;DHT22;11627;51.322;22.816;2023-04-25T05:08:55;12.30;34.60
22923;DHT22;11627;51.322;22.816;2023-04-25T05:11:22;12.40;29.50
22923;DHT22;11627;51.322;22.816;2023-04-25T05:13:47;12.40;27.80
22923;DHT22;11627;51.322;22.816;2023-04-25T05:16:13;12.40;27.30
22923;DHT22;11627;51.322;22.816;2023-04-25T05:18:41;12.50;27.90
22923;DHT22;11627;51.322;22.816;2023-04-25T05:21:08;12.50;28.00
22923;DHT22;11627;51.322;22.816;2023-04-25T05:23:35;12.50;28.60
22923;DHT22;11627;51.322;22.816;2023-04-25T05:26:01;12.50;31.10
22923;DHT22;11627;51.322;22.816;2023-04-25T05:28:27;12.60;31.60
22923;DHT22;11627;51.322;22.816;2023-04-25T05:30:53;12.60;30.30
22923;DHT22;11627;51.322;22.816;2023-04-25T05:33:19;12.70;28.00
22923;DHT22;11627;51.322;22.816;2023-04-25T05:35:46;12.60;29.60
22923;DHT22;11627;51.322;22.816;2023-04-25T05:38:13;12.70;31.40
22923;DHT22;11627;51.322;22.816;2023-04-25T05:40:40;12.80;30.40
22923;DHT22;11627;51.322;22.816;2023-04-25T05:43:07;12.80;28.50
22923;DHT22;11627;51.322;22.816;2023-04-25T05:45:33;12.90;24.00
22923;DHT22;11627;51.322;22.816;2023-04-25T05:47:58;12.70;16.10
22923;DHT22;11627;51.322;22.816;2023-04-25T05:50:24;12.50;14.40
22923;DHT22;11627;51.322;22.816;2023-04-25T05:52:51;12.50;23.40
22923;DHT22;11627;51.322;22.816;2023-04-25T05:55:17;12.40;21.80
22923;DHT22;11627;51.322;22.816;2023-04-25T05:57:43;12.50;30.80
22923;DHT22;11627;51.322;22.816;2023-04-25T06:00:13;12.50;26.10
22923;DHT22;11627;51.322;22.816;2023-04-25T06:02:40;12.50;31.70
22923;DHT22;11627;51.322;22.816;2023-04-25T06:05:06;12.40;46.90
22923;DHT22;11627;51.322;22.816;2023-04-25T06:07:32;12.50;44.00
22923;DHT22;11627;51.322;22.816;2023-04-25T06:09:59;12.50;53.70
22923;DHT22;11627;51.322;22.816;2023-04-25T06:12:33;12.50;50.40
22923;DHT22;11627;51.322;22.816;2023-04-25T06:14:59;12.60;46.20
22923;DHT22;11627;51.322;22.816;2023-04-25T06:17:25;12.70;38.20
22923;DHT22;11627;51.322;22.816;2023-04-25T06:19:51;12.70;36.70
22923;DHT22;11627;51.322;22.816;2023-04-25T06:22:19;12.80;30.00
22923;DHT22;11627;51.322;22.816;2023-04-25T06:24:44;12.70;23.60
22923;DHT22;11627;51.322;22.816;2023-04-25T06:27:11;12.70;26.50
22923;DHT22;11627;51.322;22.816;2023-04-25T06:29:38;12.80;27.90
22923;DHT22;11627;51.322;22.816;2023-04-25T06:32:04;12.80;25.80
22923;DHT22;11627;51.322;22.816;2023-04-25T06:34:30;12.80;17.50
22923;DHT22;11627;51.322;22.816;2023-04-25T06:36:56;12.90;18.10
22923;DHT22;11627;51.322;22.816;2023-04-25T06:39:21;13.00;18.50
22923;DHT22;11627;51.322;22.816;2023-04-25T06:41:51;13.10;16.10
22923;DHT22;11627;51.322;22.816;2023-04-25T06:44:17;12.90;24.60
22923;DHT22;11627;51.322;22.816;2023-04-25T06:46:43;13.00;25.20
22923;DHT22;11627;51.322;22.816;2023-04-25T06:49:09;12.90;21.80
22923;DHT22;11627;51.322;22.816;2023-04-25T06:51:36;12.90;28.20
22923;DHT22;11627;51.322;22.816;2023-04-25T06:54:03;12.90;30.80
22923;DHT22;11627;51.322;22.816;2023-04-25T06:56:31;13.00;27.30
22923;DHT22;11627;51.322;22.816;2023-04-25T06:58:59;12.90;28.40
22923;DHT22;11627;51.322;22.816;2023-04-25T07:01:27;12.80;35.90
22923;DHT22;11627;51.322;22.816;2023-04-25T07:03:54;12.90;35.10
22923;DHT22;11627;51.322;22.816;2023-04-25T07:06:20;12.80;30.20
22923;DHT22;11627;51.322;22.816;2023-04-25T07:08:46;12.90;29.60
22923;DHT22;11627;51.322;22.816;2023-04-25T07:11:13;13.10;29.00
22923;DHT22;11627;51.322;22.816;2023-04-25T07:13:40;13.20;33.90
22923;DHT22;11627;51.322;22.816;2023-04-25T07:16:07;13.00;17.20
22923;DHT22;11627;51.322;22.816;2023-04-25T07:18:35;13.00;28.60
22923;DHT22;11627;51.322;22.816;2023-04-25T07:21:02;12.90;24.00
22923;DHT22;11627;51.322;22.816;2023-04-25T07:23:29;13.10;23.90
22923;DHT22;11627;51.322;22.816;2023-04-25T07:25:55;13.30;25.20
22923;DHT22;11627;51.322;22.816;2023-04-25T07:28:21;13.40;32.60
22923;DHT22;11627;51.322;22.816;2023-04-25T07:30:48;13.50;27.70
22923;DHT22;11627;51.322;22.816;2023-04-25T07:33:17;13.30;42.30
22923;DHT22;11627;51.322;22.816;2023-04-25T07:35:45;13.30;53.60
22923;DHT22;11627;51.322;22.816;2023-04-25T07:38:13;13.20;61.30
22923;DHT22;11627;51.322;22.816;2023-04-25T07:40:39;13.30;50.60
22923;DHT22;11627;51.322;22.816;2023-04-25T07:43:06;13.40;40.00
22923;DHT22;11627;51.322;22.816;2023-04-25T07:45:32;13.40;37.60
22923;DHT22;11627;51.322;22.816;2023-04-25T07:47:57;13.30;40.00
22923;DHT22;11627;51.322;22.816;2023-04-25T07:50:23;13.40;49.90
22923;DHT22;11627;51.322;22.816;2023-04-25T07:52:50;13.30;56.40
22923;DHT22;11627;51.322;22.816;2023-04-25T07:55:18;13.30;65.60
22923;DHT22;11627;51.322;22.816;2023-04-25T07:57:44;13.20;64.00
22923;DHT22;11627;51.322;22.816;2023-04-25T08:00:11;13.20;63.20
22923;DHT22;11627;51.322;22.816;2023-04-25T08:02:38;13.20;72.50
22923;DHT22;11627;51.322;22.816;2023-04-25T08:05:04;13.10;90.30
22923;DHT22;11627;51.322;22.816;2023-04-25T08:07:30;13.10;93.20
22923;DHT22;11627;51.322;22.816;2023-04-25T08:09:56;13.00;92.00
22923;DHT22;11627;51.322;22.816;2023-04-25T08:12:22;12.90;83.60
22923;DHT22;11627;51.322;22.816;2023-04-25T08:14:48;12.90;87.70
22923;DHT22;11627;51.322;22.816;2023-04-25T08:17:13;12.90;82.30
22923;DHT22;11627;51.322;22.816;2023-04-25T08:19:39;12.80;84.50
22923;DHT22;11627;51.322;22.816;2023-04-25T08:22:05;13.00;87.90
22923;DHT22;11627;51.322;22.816;2023-04-25T08:24:32;13.10;91.70
22923;DHT22;11627;51.322;22.816;2023-04-25T08:26:59;13.20;94.10
22923;DHT22;11627;51.322;22.816;2023-04-25T08:29:26;13.30;92.30
22923;DHT22;11627;51.322;22.816;2023-04-25T08:31:53;13.30;90.10
22923;DHT22;11627;51.322;22.816;2023-04-25T08:34:21;13.40;87.50
22923;DHT22;11627;51.322;22.816;2023-04-25T08:36:48;13.40;79.50
22923;DHT22;11627;51.322;22.816;2023-04-25T08:39:16;13.40;81.40
22923;DHT22;11627;51.322;22.816;2023-04-25T08:41:42;13.40;92.30
22923;DHT22;11627;51.322;22.816;2023-04-25T08:44:10;13.50;94.20
22923;DHT22;11627;51.322;22.816;2023-04-25T08:46:40;13.60;92.10
22923;DHT22;11627;51.322;22.816;2023-04-25T08:49:08;13.70;88.30
22923;DHT22;11627;51.322;22.816;2023-04-25T08:51:44;13.70;81.50
22923;DHT22;11627;51.322;22.816;2023-04-25T08:54:13;13.80;72.30
22923;DHT22;11627;51.322;22.816;2023-04-25T08:56:44;13.70;80.80
22923;DHT22;11627;51.322;22.816;2023-04-25T08:59:12;13.80;84.10
22923;DHT22;11627;51.322;22.816;2023-04-25T09:01:39;13.80;89.50
22923;DHT22;11627;51.322;22.816;2023-04-25T09:04:05;13.80;90.60
22923;DHT22;11627;51.322;22.816;2023-04-25T09:06:32;13.80;90.90
22923;DHT22;11627;51.322;22.816;2023-04-25T09:09:05;13.90;87.70
22923;DHT22;11627;51.322;22.816;2023-04-25T09:11:34;13.90;83.60
22923;DHT22;11627;51.322;22.816;2023-04-25T09:14:30;13.90;90.50
22923;DHT22;11627;51.322;22.816;2023-04-25T09:17:15;14.10;78.20
22923;DHT22;11627;51.322;22.816;2023-04-25T09:19:43;14.00;75.70
22923;DHT22;11627;51.322;22.816;2023-04-25T09:22:13;14.00;65.20
22923;DHT22;11627;51.322;22.816;2023-04-25T09:24:43;13.80;62.10
22923;DHT22;11627;51.322;22.816;2023-04-25T09:27:18;13.90;61.10
22923;DHT22;11627;51.322;22.816;2023-04-25T09:29:45;13.90;61.90
22923;DHT22;11627;51.322;22.816;2023-04-25T09:34:43;13.90;63.80
22923;DHT22;11627;51.322;22.816;2023-04-25T09:37:09;13.90;62.10
22923;DHT22;11627;51.322;22.816;2023-04-25T09:39:38;13.90;72.60
22923;DHT22;11627;51.322;22.816;2023-04-25T09:42:05;13.90;77.20
22923;DHT22;11627;51.322;22.816;2023-04-25T09:44:31;14.00;72.90
22923;DHT22;11627;51.322;22.816;2023-04-25T09:46:58;14.10;69.30
22923;DHT22;11627;51.322;22.816;2023-04-25T09:49:25;14.10;70.50
22923;DHT22;11627;51.322;22.816;2023-04-25T09:51:59;14.10;74.70
22923;DHT22;11627;51.322;22.816;2023-04-25T09:54:26;14.20;69.60
22923;DHT22;11627;51.322;22.816;2023-04-25T09:56:53;14.20;62.80
22923;DHT22;11627;51.322;22.816;2023-04-25T09:59:20;14.20;65.90
22923;DHT22;11627;51.322;22.816;2023-04-25T10:01:50;14.20;67.60
22923;DHT22;11627;51.322;22.816;2023-04-25T10:04:25;14.20;67.90
22923;DHT22;11627;51.322;22.816;2023-04-25T10:06:54;14.20;65.70
22923;DHT22;11627;51.322;22.816;2023-04-25T10:09:25;14.20;64.40
22923;DHT22;11627;51.322;22.816;2023-04-25T10:11:52;14.20;66.60
22923;DHT22;11627;51.322;22.816;2023-04-25T10:14:25;14.20;68.20
22923;DHT22;11627;51.322;22.816;2023-04-25T10:16:54;14.30;71.30
22923;DHT22;11627;51.322;22.816;2023-04-25T10:19:23;14.40;64.40
22923;DHT22;11627;51.322;22.816;2023-04-25T10:22:14;14.40;57.40
22923;DHT22;11627;51.322;22.816;2023-04-25T10:24:41;14.50;56.80
22923;DHT22;11627;51.322;22.816;2023-04-25T10:27:10;14.40;58.00
22923;DHT22;11627;51.322;22.816;2023-04-25T10:29:36;14.50;58.90
22923;DHT22;11627;51.322;22.816;2023-04-25T10:32:03;14.50;51.30
22923;DHT22;11627;51.322;22.816;2023-04-25T10:34:41;14.60;47.70
22923;DHT22;11627;51.322;22.816;2023-04-25T10:37:12;14.50;44.30
22923;DHT22;11627;51.322;22.816;2023-04-25T10:39:44;14.50;55.30
22923;DHT22;11627;51.322;22.816;2023-04-25T10:42:11;14.60;56.90
22923;DHT22;11627;51.322;22.816;2023-04-25T10:44:38;14.60;61.10
22923;DHT22;11627;51.322;22.816;2023-04-25T10:47:07;14.40;68.30
22923;DHT22;11627;51.322;22.816;2023-04-25T10:49:37;14.50;66.60
22923;DHT22;11627;51.322;22.816;2023-04-25T10:54:58;14.70;48.60
22923;DHT22;11627;51.322;22.816;2023-04-25T10:57:30;14.80;45.20
22923;DHT22;11627;51.322;22.816;2023-04-25T11:00:09;14.80;44.40
22923;DHT22;11627;51.322;22.816;2023-04-25T11:02:47;14.70;43.70
22923;DHT22;11627;51.322;22.816;2023-04-25T11:05:33;14.70;44.00
22923;DHT22;11627;51.322;22.816;2023-04-25T11:07:59;14.50;59.50
22923;DHT22;11627;51.322;22.816;2023-04-25T11:10:27;14.40;56.70
22923;DHT22;11627;51.322;22.816;2023-04-25T11:12:56;14.50;49.50
22923;DHT22;11627;51.322;22.816;2023-04-25T11:15:29;14.50;43.10
22923;DHT22;11627;51.322;22.816;2023-04-25T11:17:55;14.40;44.70
22923;DHT22;11627;51.322;22.816;2023-04-25T11:20:25;14.40;48.30
22923;DHT22;11627;51.322;22.816;2023-04-25T11:22:51;14.40;49.40
22923;DHT22;11627;51.322;22.816;2023-04-25T11:25:17;14.30;46.70
22923;DHT22;11627;51.322;22.816;2023-04-25T11:27:57;14.40;43.10
22923;DHT22;11627;51.322;22.816;2023-04-25T11:30:24;14.30;43.50
22923;DHT22;11627;51.322;22.816;2023-04-25T11:32:52;14.30;44.90
22923;DHT22;11627;51.322;22.816;2023-04-25T11:35:21;14.30;52.90
22923;DHT22;11627;51.322;22.816;2023-04-25T11:37:49;14.30;57.80
22923;DHT22;11627;51.322;22.816;2023-04-25T11:40:16;14.40;62.70
22923;DHT22;11627;51.322;22.816;2023-04-25T11:42:47;14.40;61.80
22923;DHT22;11627;51.322;22.816;2023-04-25T11:45:14;14.40;58.30
22923;DHT22;11627;51.322;22.816;2023-04-25T11:47:40;14.40;55.50
22923;DHT22;11627;51.322;22.816;2023-04-25T11:50:09;14.30;50.60
22923;DHT22;11627;51.322;22.816;2023-04-25T11:55:09;14.20;69.00
22923;DHT22;11627;51.322;22.816;2023-04-25T11:57:41;14.20;68.10
22923;DHT22;11627;51.322;22.816;2023-04-25T12:00:18;14.30;65.30
22923;DHT22;11627;51.322;22.816;2023-04-25T12:02:52;14.10;52.50
22923;DHT22;11627;51.322;22.816;2023-04-25T12:05:23;14.10;58.60
22923;DHT22;11627;51.322;22.816;2023-04-25T12:07:52;14.10;60.70
22923;DHT22;11627;51.322;22.816;2023-04-25T12:10:19;13.90;73.70
22923;DHT22;11627;51.322;22.816;2023-04-25T12:12:46;13.90;76.50
22923;DHT22;11627;51.322;22.816;2023-04-25T12:15:25;14.10;80.00
22923;DHT22;11627;51.322;22.816;2023-04-25T12:17:53;14.10;66.80
22923;DHT22;11627;51.322;22.816;2023-04-25T12:20:24;14.20;75.80
22923;DHT22;11627;51.322;22.816;2023-04-25T12:22:51;14.30;74.00
22923;DHT22;11627;51.322;22.816;2023-04-25T12:25:36;14.20;59.50
22923;DHT22;11627;51.322;22.816;2023-04-25T12:28:23;14.20;52.20
22923;DHT22;11627;51.322;22.816;2023-04-25T12:30:59;14.30;58.50
22923;DHT22;11627;51.322;22.816;2023-04-25T12:33:34;14.50;59.30
22923;DHT22;11627;51.322;22.816;2023-04-25T12:36:01;14.70;58.30
22923;DHT22;11627;51.322;22.816;2023-04-25T12:38:39;14.50;43.80
22923;DHT22;11627;51.322;22.816;2023-04-25T12:41:06;14.60;37.70
22923;DHT22;11627;51.322;22.816;2023-04-25T12:43:33;14.50;29.00
22923;DHT22;11627;51.322;22.816;2023-04-25T12:46:02;14.20;44.20
22923;DHT22;11627;51.322;22.816;2023-04-25T12:48:29;14.30;42.20
22923;DHT22;11627;51.322;22.816;2023-04-25T12:50:57;14.40;20.60
22923;DHT22;11627;51.322;22.816;2023-04-25T12:53:24;14.10;30.60
22923;DHT22;11627;51.322;22.816;2023-04-25T12:55:51;14.10;45.30
22923;DHT22;11627;51.322;22.816;2023-04-25T12:58:20;14.20;40.60
22923;DHT22;11627;51.322;22.816;2023-04-25T13:00:46;14.30;44.60
22923;DHT22;11627;51.322;22.816;2023-04-25T13:03:14;13.90;48.80
22923;DHT22;11627;51.322;22.816;2023-04-25T13:05:40;13.80;57.00
22923;DHT22;11627;51.322;22.816;2023-04-25T13:08:08;13.70;64.50
22923;DHT22;11627;51.322;22.816;2023-04-25T13:10:34;13.70;59.60
22923;DHT22;11627;51.322;22.816;2023-04-25T13:13:02;13.60;74.00
22923;DHT22;11627;51.322;22.816;2023-04-25T13:15:28;13.00;93.00
22923;DHT22;11627;51.322;22.816;2023-04-25T13:17:54;12.50;99.90
22923;DHT22;11627;51.322;22.816;2023-04-25T13:20:22;12.10;99.90
22923;DHT22;11627;51.322;22.816;2023-04-25T13:22:49;11.90;99.90
22923;DHT22;11627;51.322;22.816;2023-04-25T13:25:17;11.60;99.90
22923;DHT22;11627;51.322;22.816;2023-04-25T13:27:43;11.50;99.90
22923;DHT22;11627;51.322;22.816;2023-04-25T13:30:11;11.30;99.90
22923;DHT22;11627;51.322;22.816;2023-04-25T13:32:37;11.20;99.90
22923;DHT22;11627;51.322;22.816;2023-04-25T13:35:09;11.30;99.90
22923;DHT22;11627;51.322;22.816;2023-04-25T13:37:35;11.30;99.90
22923;DHT22;11627;51.322;22.816;2023-04-25T13:40:09;11.10;99.90
22923;DHT22;11627;51.322;22.816;2023-04-25T13:42:37;11.10;99.90
22923;DHT22;11627;51.322;22.816;2023-04-25T13:45:03;11.10;99.90
22923;DHT22;11627;51.322;22.816;2023-04-25T13:47:29;11.00;99.90
22923;DHT22;11627;51.322;22.816;2023-04-25T13:49:57;10.90;99.90
22923;DHT22;11627;51.322;22.816;2023-04-25T13:52:24;10.80;99.90
22923;DHT22;11627;51.322;22.816;2023-04-25T13:54:51;10.80;99.90
22923;DHT22;11627;51.322;22.816;2023-04-25T13:57:19;10.60;99.90
22923;DHT22;11627;51.322;22.816;2023-04-25T13:59:45;10.40;99.90
22923;DHT22;11627;51.322;22.816;2023-04-25T14:02:13;10.50;99.90
22923;DHT22;11627;51.322;22.816;2023-04-25T14:04:43;10.40;99.90
22923;DHT22;11627;51.322;22.816;2023-04-25T14:07:10;10.30;99.90
22923;DHT22;11627;51.322;22.816;2023-04-25T14:09:36;10.30;99.90
22923;DHT22;11627;51.322;22.816;2023-04-25T14:12:02;10.30;99.90
22923;DHT22;11627;51.322;22.816;2023-04-25T14:14:29;10.30;99.90
22923;DHT22;11627;51.322;22.816;2023-04-25T14:16:56;10.20;99.90
22923;DHT22;11627;51.322;22.816;2023-04-25T14:19:23;10.20;99.90
22923;DHT22;11627;51.322;22.816;2023-04-25T14:21:49;10.20;99.90
22923;DHT22;11627;51.322;22.816;2023-04-25T14:24:15;10.10;99.90
22923;DHT22;11627;51.322;22.816;2023-04-25T14:26:41;10.10;99.90
22923;DHT22;11627;51.322;22.816;2023-04-25T14:29:09;10.10;99.90
22923;DHT22;11627;51.322;22.816;2023-04-25T14:31:38;10.00;99.90
22923;DHT22;11627;51.322;22.816;2023-04-25T14:34:05;9.90;99.90
22923;DHT22;11627;51.322;22.816;2023-04-25T14:36:32;9.90;99.90
22923;DHT22;11627;51.322;22.816;2023-04-25T14:38:58;9.90;99.90
22923;DHT22;11627;51.322;22.816;2023-04-25T14:41:27;9.90;99.90
22923;DHT22;11627;51.322;22.816;2023-04-25T14:43:55;9.80;99.90
22923;DHT22;11627;51.322;22.816;2023-04-25T14:46:25;9.90;99.90
22923;DHT22;11627;51.322;22.816;2023-04-25T14:48:54;9.80;99.90
22923;DHT22;11627;51.322;22.816;2023-04-25T14:51:21;9.70;99.90
22923;DHT22;11627;51.322;22.816;2023-04-25T14:53:47;9.70;99.90
22923;DHT22;11627;51.322;22.816;2023-04-25T14:56:13;9.70;99.90
22923;DHT22;11627;51.322;22.816;2023-04-25T14:58:39;9.70;99.90
22923;DHT22;11627;51.322;22.816;2023-04-25T15:01:06;9.70;99.90
22923;DHT22;11627;51.322;22.816;2023-04-25T15:03:34;9.70;99.90
22923;DHT22;11627;51.322;22.816;2023-04-25T15:06:02;9.70;99.90
22923;DHT22;11627;51.322;22.816;2023-04-25T15:08:28;9.70;99.90
22923;DHT22;11627;51.322;22.816;2023-04-25T15:10:56;9.60;99.90
22923;DHT22;11627;51.322;22.816;2023-04-25T15:13:26;9.60;99.90
22923;DHT22;11627;51.322;22.816;2023-04-25T15:15:54;9.50;99.90
22923;DHT22;11627;51.322;22.816;2023-04-25T15:18:23;9.50;99.90
22923;DHT22;11627;51.322;22.816;2023-04-25T15:20:52;9.50;99.90
22923;DHT22;11627;51.322;22.816;2023-04-25T15:23:20;9.50;99.90
22923;DHT22;11627;51.322;22.816;2023-04-25T15:25:47;9.40;99.90
22923;DHT22;11627;51.322;22.816;2023-04-25T15:28:14;9.40;99.90
22923;DHT22;11627;51.322;22.816;2023-04-25T15:30:45;9.30;99.90
22923;DHT22;11627;51.322;22.816;2023-04-25T15:33:12;9.40;99.90